createdAt,value
2018-11-26T00:00:16.976Z,92.90
2018-11-26T00:02:44.716Z,92.90
2018-11-26T00:05:12.497Z,92.80
2018-11-26T00:07:40.226Z,92.90
2018-11-26T00:10:19.508Z,92.90
2018-11-26T00:12:47.317Z,92.90
2018-11-26T00:15:15.035Z,92.80
2018-11-26T00:17:42.723Z,92.90
2018-11-26T00:20:10.459Z,92.80
2018-11-26T00:22:38.179Z,92.80
2018-11-26T00:25:06.507Z,92.60
2018-11-26T00:27:34.271Z,92.60
2018-11-26T00:30:01.977Z,92.60
2018-11-26T00:32:29.690Z,92.70
2018-11-26T00:34:57.424Z,92.80
2018-11-26T00:37:25.123Z,92.80
2018-11-26T00:39:58.537Z,92.40
2018-11-26T00:42:26.232Z,92.30
2018-11-26T00:44:53.957Z,92.20
2018-11-26T00:47:21.685Z,92.20
2018-11-26T00:49:49.362Z,92.30
2018-11-26T00:52:17.034Z,92.40
2018-11-26T00:54:44.765Z,92.40
2018-11-26T00:57:18.049Z,92.20
2018-11-26T00:59:45.770Z,92.40
2018-11-26T01:02:13.467Z,92.60
2018-11-26T01:04:41.253Z,92.60
2018-11-26T01:07:09.011Z,92.60
2018-11-26T01:09:36.699Z,92.70
2018-11-26T01:12:04.414Z,92.60
2018-11-26T01:14:32.135Z,92.50
2018-11-26T01:16:59.821Z,92.30
2018-11-26T01:19:27.515Z,92.20
2018-11-26T01:21:55.326Z,92.20
2018-11-26T01:24:23.032Z,92.70
2018-11-26T01:26:50.744Z,92.40
2018-11-26T01:29:18.537Z,92.30
2018-11-26T01:31:46.268Z,92.30
2018-11-26T01:34:13.966Z,92.30
2018-11-26T01:36:41.727Z,92.40
2018-11-26T01:39:09.421Z,92.40
2018-11-26T01:41:37.192Z,92.40
2018-11-26T01:44:04.951Z,92.50
2018-11-26T01:46:32.652Z,92.50
2018-11-26T01:49:00.329Z,92.60
2018-11-26T01:51:28.072Z,92.60
2018-11-26T01:53:55.795Z,92.70
2018-11-26T01:56:23.473Z,92.70
2018-11-26T01:58:51.210Z,92.70
2018-11-26T02:01:18.959Z,92.70
2018-11-26T02:03:46.630Z,92.90
2018-11-26T02:06:20.019Z,93.00
2018-11-26T02:08:47.695Z,93.00
2018-11-26T02:11:15.382Z,92.70
2018-11-26T02:13:43.118Z,92.60
2018-11-26T02:16:10.792Z,92.60
2018-11-26T02:18:38.473Z,92.60
2018-11-26T02:21:06.220Z,92.60
2018-11-26T02:23:33.893Z,92.60
2018-11-26T02:26:01.710Z,92.60
2018-11-26T02:28:29.475Z,92.70
2018-11-26T02:30:57.185Z,92.90
2018-11-26T02:33:30.583Z,92.70
2018-11-26T02:36:04.053Z,92.70
2018-11-26T02:38:31.766Z,92.70
2018-11-26T02:41:05.128Z,92.60
2018-11-26T02:43:32.880Z,92.40
2018-11-26T02:46:00.560Z,92.60
2018-11-26T02:48:28.256Z,92.60
2018-11-26T02:50:55.948Z,92.70
2018-11-26T02:53:23.640Z,92.60
2018-11-26T02:55:51.312Z,92.70
2018-11-26T02:58:19.045Z,92.70
2018-11-26T03:00:46.756Z,92.70
2018-11-26T03:03:15.351Z,92.50
2018-11-26T03:05:43.418Z,92.70
2018-11-26T03:08:11.101Z,92.50
2018-11-26T03:10:38.779Z,92.40
2018-11-26T03:13:06.547Z,92.40
2018-11-26T03:15:34.224Z,92.40
2018-11-26T03:18:01.935Z,92.40
2018-11-26T03:20:29.668Z,92.10
2018-11-26T03:22:57.357Z,92.10
2018-11-26T03:25:25.069Z,92.10
2018-11-26T03:27:52.850Z,92.20
2018-11-26T03:30:26.171Z,92.50
2018-11-26T03:32:53.949Z,92.50
2018-11-26T03:35:21.648Z,92.30
2018-11-26T03:37:49.372Z,92.20
2018-11-26T03:40:22.557Z,92.10
2018-11-26T03:42:50.616Z,92.00
2018-11-26T03:45:23.936Z,92.00
2018-11-26T03:47:51.606Z,92.00
2018-11-26T03:50:19.322Z,92.10
2018-11-26T03:52:47.014Z,92.20
2018-11-26T03:55:14.722Z,92.20
2018-11-26T03:57:42.424Z,92.80
2018-11-26T04:00:12.454Z,92.30
2018-11-26T04:02:40.156Z,92.40
2018-11-26T04:05:08.791Z,92.50
2018-11-26T04:07:36.506Z,92.30
2018-11-26T04:10:05.857Z,92.10
2018-11-26T04:12:39.156Z,91.80
2018-11-26T04:15:10.365Z,92.10
2018-11-26T04:17:38.034Z,92.20
2018-11-26T04:20:11.355Z,92.40
2018-11-26T04:22:39.072Z,92.40
2018-11-26T04:25:07.863Z,92.40
2018-11-26T04:27:35.676Z,92.30
2018-11-26T04:30:03.613Z,92.30
2018-11-26T04:32:31.343Z,92.60
2018-11-26T04:34:59.050Z,92.30
2018-11-26T04:37:26.735Z,92.30
2018-11-26T04:39:54.448Z,92.30
2018-11-26T04:42:22.276Z,92.10
2018-11-26T04:44:49.971Z,92.20
2018-11-26T04:47:17.684Z,92.20
2018-11-26T04:49:45.424Z,92.10
2018-11-26T04:52:13.208Z,92.10
2018-11-26T04:54:40.914Z,92.20
2018-11-26T04:57:08.658Z,92.20
2018-11-26T04:59:36.366Z,92.10
2018-11-26T05:02:04.358Z,92.10
2018-11-26T05:04:32.084Z,92.10
2018-11-26T05:06:59.797Z,92.40
2018-11-26T05:09:27.492Z,92.30
2018-11-26T05:12:00.943Z,92.40
2018-11-26T05:14:28.632Z,92.50
2018-11-26T05:16:56.359Z,92.40
2018-11-26T05:19:24.083Z,92.20
2018-11-26T05:21:57.313Z,92.10
2018-11-26T05:24:25.044Z,92.10
2018-11-26T05:26:52.742Z,92.00
2018-11-26T05:29:25.970Z,92.00
2018-11-26T05:31:53.812Z,92.40
2018-11-26T05:34:27.284Z,92.50
2018-11-26T05:36:54.982Z,92.60
2018-11-26T05:39:22.706Z,92.70
2018-11-26T05:41:50.434Z,92.90
2018-11-26T05:44:18.176Z,92.80
2018-11-26T05:46:45.908Z,92.90
2018-11-26T05:49:19.295Z,92.70
2018-11-26T05:51:47.008Z,92.50
2018-11-26T05:54:14.708Z,92.60
2018-11-26T05:56:42.448Z,92.50
2018-11-26T05:59:10.138Z,92.40
2018-11-26T06:01:43.452Z,92.60
2018-11-26T06:04:11.124Z,92.50
2018-11-26T06:06:38.848Z,92.50
2018-11-26T06:09:10.116Z,92.70
2018-11-26T06:11:39.192Z,92.50
2018-11-26T06:14:07.033Z,92.10
2018-11-26T06:16:35.956Z,92.10
2018-11-26T06:19:03.807Z,92.10
2018-11-26T06:21:31.490Z,92.10
2018-11-26T06:23:59.922Z,92.10
2018-11-26T06:26:28.973Z,92.40
2018-11-26T06:28:56.684Z,92.10
2018-11-26T06:31:24.402Z,92.10
2018-11-26T06:33:52.066Z,92.40
2018-11-26T06:36:19.895Z,92.10
2018-11-26T06:38:47.644Z,92.50
2018-11-26T06:41:15.359Z,92.50
2018-11-26T06:43:48.656Z,92.40
2018-11-26T06:46:17.792Z,92.00
2018-11-26T06:48:45.476Z,91.90
2018-11-26T06:51:13.210Z,91.80
2018-11-26T06:53:40.898Z,91.80
2018-11-26T06:56:08.642Z,92.00
2018-11-26T06:58:36.336Z,91.80
2018-11-26T07:01:04.122Z,91.70
2018-11-26T07:03:31.835Z,91.60
2018-11-26T07:05:59.575Z,91.50
2018-11-26T07:08:30.560Z,91.70
2018-11-26T07:10:58.262Z,91.60
2018-11-26T07:13:25.980Z,92.00
2018-11-26T07:15:53.687Z,91.50
2018-11-26T07:18:21.404Z,91.80
2018-11-26T07:20:49.128Z,91.50
2018-11-26T07:23:16.803Z,91.30
2018-11-26T07:25:50.308Z,90.70
2018-11-26T07:28:24.618Z,90.80
2018-11-26T07:30:52.400Z,90.60
2018-11-26T07:33:20.120Z,90.40
2018-11-26T07:35:47.848Z,90.80
2018-11-26T07:38:15.611Z,90.50
2018-11-26T07:40:48.872Z,90.40
2018-11-26T07:43:16.603Z,90.40
2018-11-26T07:45:44.287Z,90.50
2018-11-26T07:48:12.259Z,90.70
2018-11-26T07:50:40.007Z,90.60
2018-11-26T07:53:08.882Z,90.50
2018-11-26T07:55:37.184Z,90.00
2018-11-26T07:58:04.932Z,89.40
2018-11-26T08:00:32.642Z,88.70
2018-11-26T08:03:00.372Z,89.30
2018-11-26T08:05:28.094Z,88.10
2018-11-26T08:07:55.844Z,87.60
2018-11-26T08:10:23.914Z,87.30
2018-11-26T08:12:52.778Z,86.70
2018-11-26T08:15:28.128Z,86.50
2018-11-26T08:17:55.899Z,86.50
2018-11-26T08:20:23.711Z,86.80
2018-11-26T08:22:51.420Z,86.10
2018-11-26T08:25:20.172Z,86.40
2018-11-26T08:27:48.572Z,86.70
2018-11-26T08:30:18.419Z,87.00
2018-11-26T08:32:47.568Z,85.80
2018-11-26T08:35:22.428Z,85.40
2018-11-26T08:37:55.740Z,85.40
2018-11-26T08:40:28.880Z,86.30
2018-11-26T08:43:14.956Z,86.20
2018-11-26T08:45:49.613Z,85.50
2018-11-26T08:48:29.888Z,85.40
2018-11-26T08:50:59.534Z,85.50
2018-11-26T08:53:27.363Z,85.90
2018-11-26T08:56:00.671Z,85.50
2018-11-26T08:58:28.323Z,85.30
2018-11-26T09:01:01.767Z,84.90
2018-11-26T09:03:39.884Z,84.80
2018-11-26T09:06:07.676Z,84.40
2018-11-26T09:08:36.513Z,83.00
2018-11-26T09:11:05.276Z,82.60
2018-11-26T09:13:32.949Z,81.40
2018-11-26T09:16:00.632Z,80.60
2018-11-26T09:18:28.384Z,79.20
2018-11-26T09:20:56.125Z,79.10
2018-11-26T09:23:23.811Z,78.60
2018-11-26T09:25:51.507Z,77.70
2018-11-26T09:28:19.260Z,79.10
2018-11-26T09:30:46.989Z,78.60
2018-11-26T09:33:14.765Z,78.90
2018-11-26T09:35:42.530Z,78.30
2018-11-26T09:38:10.222Z,77.40
2018-11-26T09:40:43.524Z,77.50
2018-11-26T09:43:11.323Z,76.50
2018-11-26T09:45:40.397Z,77.60
2018-11-26T09:48:06.887Z,77.30
2018-11-26T09:50:34.676Z,76.60
2018-11-26T09:53:02.377Z,75.30
2018-11-26T09:55:30.115Z,75.10
2018-11-26T09:57:57.814Z,74.90
2018-11-26T10:00:25.549Z,74.70
2018-11-26T10:02:53.277Z,73.70
2018-11-26T10:05:23.099Z,74.30
2018-11-26T10:07:50.846Z,74.70
2018-11-26T10:10:18.632Z,73.40
2018-11-26T10:12:46.326Z,74.10
2018-11-26T10:15:18.051Z,74.10
2018-11-26T10:17:45.873Z,74.80
2018-11-26T10:20:13.551Z,74.00
2018-11-26T10:22:41.904Z,73.40
2018-11-26T10:25:12.080Z,72.30
2018-11-26T10:27:39.985Z,71.50
2018-11-26T10:30:17.792Z,71.60
2018-11-26T10:32:46.160Z,71.80
2018-11-26T10:35:14.857Z,70.10
2018-11-26T10:37:42.660Z,70.30
2018-11-26T10:40:27.107Z,71.20
2018-11-26T10:42:54.852Z,71.60
2018-11-26T10:45:23.712Z,70.90
2018-11-26T10:47:51.419Z,70.20
2018-11-26T10:50:20.775Z,70.30
2018-11-26T10:52:53.627Z,70.90
2018-11-26T10:55:22.881Z,69.80
2018-11-26T10:57:50.724Z,70.00
2018-11-26T11:00:29.835Z,70.40
2018-11-26T11:02:57.515Z,70.60
2018-11-26T11:05:25.256Z,69.50
2018-11-26T11:07:53.032Z,70.30
2018-11-26T11:10:26.992Z,70.40
2018-11-26T11:12:54.715Z,69.00
2018-11-26T11:15:22.430Z,69.40
2018-11-26T11:17:50.131Z,69.90
2018-11-26T11:20:21.052Z,70.20
2018-11-26T11:22:54.320Z,69.40
2018-11-26T11:25:22.402Z,69.50
2018-11-26T11:27:56.503Z,68.30
2018-11-26T11:30:25.551Z,67.90
2018-11-26T11:32:53.070Z,68.30
2018-11-26T11:35:26.450Z,68.00
2018-11-26T11:37:54.630Z,68.50
2018-11-26T11:40:24.483Z,68.20
2018-11-26T11:42:52.491Z,68.60
2018-11-26T11:45:20.816Z,68.70
2018-11-26T11:47:48.504Z,68.30
2018-11-26T11:50:17.504Z,67.70
2018-11-26T11:52:50.902Z,68.50
2018-11-26T11:55:21.760Z,67.60
2018-11-26T11:57:49.856Z,68.20
2018-11-26T12:00:27.520Z,68.00
2018-11-26T12:02:55.242Z,67.90
2018-11-26T12:05:23.056Z,66.00
2018-11-26T12:07:50.766Z,65.70
2018-11-26T12:10:18.450Z,65.50
2018-11-26T12:12:46.160Z,65.20
2018-11-26T12:15:15.220Z,65.30
2018-11-26T12:17:49.194Z,65.60
2018-11-26T12:20:16.892Z,66.40
2018-11-26T12:22:44.874Z,66.10
2018-11-26T12:25:14.683Z,65.80
2018-11-26T12:27:42.405Z,66.20
2018-11-26T12:30:19.548Z,65.40
2018-11-26T12:32:47.244Z,65.40
2018-11-26T12:35:14.975Z,65.00
2018-11-26T12:37:42.660Z,64.70
2018-11-26T12:40:11.807Z,64.90
2018-11-26T12:42:39.475Z,65.10
2018-11-26T12:45:14.694Z,65.70
2018-11-26T12:47:42.361Z,64.80
2018-11-26T12:50:10.063Z,64.20
2018-11-26T12:52:38.107Z,63.20
2018-11-26T12:55:07.826Z,63.20
2018-11-26T12:57:35.804Z,63.40
2018-11-26T13:00:03.970Z,62.60
2018-11-26T13:02:31.632Z,62.60
2018-11-26T13:04:59.323Z,62.70
2018-11-26T13:07:27.008Z,62.40
2018-11-26T13:09:54.664Z,62.30
2018-11-26T13:12:22.332Z,62.80
2018-11-26T13:14:50.046Z,63.50
2018-11-26T13:17:17.706Z,63.50
2018-11-26T13:19:45.392Z,63.40
2018-11-26T13:22:13.082Z,63.90
2018-11-26T13:24:40.788Z,64.00
2018-11-26T13:27:08.461Z,64.20
2018-11-26T13:29:36.154Z,64.60
2018-11-26T13:32:03.845Z,64.90
2018-11-26T13:34:37.308Z,65.10
2018-11-26T13:37:04.842Z,65.30
2018-11-26T13:39:32.532Z,65.50
2018-11-26T13:42:00.225Z,65.90
2018-11-26T13:44:27.883Z,66.00
2018-11-26T13:46:55.621Z,66.20
2018-11-26T13:49:23.321Z,66.70
2018-11-26T13:51:51.037Z,66.70
2018-11-26T13:54:18.721Z,67.60
2018-11-26T13:56:46.453Z,66.90
2018-11-26T13:59:14.144Z,66.50
2018-11-26T14:01:41.809Z,66.90
2018-11-26T14:04:09.492Z,66.20
2018-11-26T14:06:38.053Z,66.00
2018-11-26T14:09:08.566Z,66.70
2018-11-26T14:11:36.235Z,67.10
2018-11-26T14:14:05.282Z,67.00
2018-11-26T14:16:33.005Z,66.80
2018-11-26T14:19:00.725Z,67.00
2018-11-26T14:21:28.425Z,67.20
2018-11-26T14:23:56.205Z,67.20
2018-11-26T14:26:29.357Z,67.10
2018-11-26T14:28:57.084Z,67.30
2018-11-26T14:31:30.233Z,67.20
2018-11-26T14:33:57.955Z,67.10
2018-11-26T14:36:27.399Z,66.70
2018-11-26T14:38:55.079Z,66.60
2018-11-26T14:41:22.833Z,66.10
2018-11-26T14:43:50.595Z,66.00
2018-11-26T14:46:18.338Z,65.90
2018-11-26T14:48:46.138Z,66.50
2018-11-26T14:51:13.838Z,66.60
2018-11-26T14:53:41.565Z,67.10
2018-11-26T14:56:09.294Z,66.90
2018-11-26T14:58:37.035Z,66.70
2018-11-26T15:01:05.056Z,67.70
2018-11-26T15:03:32.807Z,67.60
2018-11-26T15:06:00.497Z,67.70
2018-11-26T15:08:28.215Z,67.90
2018-11-26T15:10:55.937Z,68.00
2018-11-26T15:13:29.335Z,68.10
2018-11-26T15:16:03.579Z,68.10
2018-11-26T15:18:31.559Z,68.30
2018-11-26T15:20:59.291Z,68.50
2018-11-26T15:23:27.018Z,68.30
2018-11-26T15:25:54.755Z,68.50
2018-11-26T15:28:22.441Z,68.50
2018-11-26T15:30:55.729Z,68.90
2018-11-26T15:33:23.406Z,69.20
2018-11-26T15:35:51.419Z,69.10
2018-11-26T15:38:19.222Z,69.40
2018-11-26T15:40:49.856Z,69.20
2018-11-26T15:43:19.082Z,69.50
2018-11-26T15:45:46.841Z,69.60
2018-11-26T15:48:14.572Z,69.90
2018-11-26T15:50:42.353Z,70.20
2018-11-26T15:53:15.976Z,69.50
2018-11-26T15:55:43.823Z,69.50
2018-11-26T15:58:11.549Z,69.60
2018-11-26T16:00:39.269Z,69.40
2018-11-26T16:03:07.115Z,69.50
2018-11-26T16:05:34.932Z,69.60
2018-11-26T16:08:05.056Z,70.00
2018-11-26T16:10:32.778Z,69.90
2018-11-26T16:13:01.632Z,69.50
2018-11-26T16:15:35.609Z,69.50
2018-11-26T16:18:05.489Z,69.30
2018-11-26T16:20:33.181Z,69.00
2018-11-26T16:23:02.429Z,69.80
2018-11-26T16:25:30.165Z,68.80
2018-11-26T16:27:57.876Z,68.90
2018-11-26T16:30:25.653Z,69.00
2018-11-26T16:32:59.041Z,68.90
2018-11-26T16:35:31.152Z,69.20
2018-11-26T16:37:59.069Z,68.70
2018-11-26T16:40:26.797Z,68.40
2018-11-26T16:42:55.500Z,69.10
2018-11-26T16:45:24.674Z,68.50
2018-11-26T16:47:53.185Z,68.10
2018-11-26T16:50:22.234Z,67.90
2018-11-26T16:52:49.973Z,67.90
2018-11-26T16:55:17.983Z,68.20
2018-11-26T16:57:45.925Z,68.30
2018-11-26T17:00:17.796Z,68.00
2018-11-26T17:02:46.406Z,69.00
2018-11-26T17:05:15.615Z,68.30
2018-11-26T17:07:43.317Z,68.50
2018-11-26T17:10:11.255Z,68.60
2018-11-26T17:12:39.616Z,68.80
2018-11-26T17:15:12.192Z,68.20
2018-11-26T17:17:45.557Z,67.90
2018-11-26T17:20:14.713Z,68.60
2018-11-26T17:22:42.590Z,68.60
2018-11-26T17:25:11.471Z,67.90
2018-11-26T17:27:39.821Z,67.90
2018-11-26T17:30:27.932Z,68.10
2018-11-26T17:33:01.476Z,68.50
2018-11-26T17:35:29.846Z,68.10
2018-11-26T17:37:57.571Z,68.30
2018-11-26T17:40:25.737Z,69.20
2018-11-26T17:42:54.071Z,69.10
2018-11-26T17:45:22.486Z,69.10
2018-11-26T17:47:51.696Z,69.10
2018-11-26T17:50:21.725Z,69.30
2018-11-26T17:52:49.547Z,69.10
2018-11-26T17:55:22.971Z,69.10
2018-11-26T17:57:50.740Z,68.60
2018-11-26T18:00:20.845Z,67.80
2018-11-26T18:02:48.650Z,67.90
2018-11-26T18:05:18.629Z,68.40
2018-11-26T18:07:49.322Z,68.20
2018-11-26T18:10:17.052Z,69.00
2018-11-26T18:12:44.801Z,68.00
2018-11-26T18:15:13.568Z,68.10
2018-11-26T18:17:41.783Z,67.60
2018-11-26T18:20:14.771Z,67.90
2018-11-26T18:22:43.424Z,67.90
2018-11-26T18:25:11.638Z,68.20
2018-11-26T18:27:47.027Z,67.90
2018-11-26T18:30:17.574Z,67.90
2018-11-26T18:32:45.296Z,67.00
2018-11-26T18:35:13.392Z,67.50
2018-11-26T18:37:41.100Z,66.90
2018-11-26T18:40:19.204Z,66.70
2018-11-26T18:42:46.960Z,67.10
2018-11-26T18:45:15.971Z,66.80
2018-11-26T18:47:44.219Z,65.80
2018-11-26T18:50:14.316Z,65.60
2018-11-26T18:52:42.896Z,65.60
2018-11-26T18:55:10.954Z,65.80
2018-11-26T18:57:38.706Z,65.80
2018-11-26T19:00:10.910Z,65.90
2018-11-26T19:02:44.331Z,65.90
2018-11-26T19:05:13.079Z,65.70
2018-11-26T19:07:40.900Z,65.50
2018-11-26T19:10:12.913Z,65.60
2018-11-26T19:12:41.476Z,65.80
2018-11-26T19:15:16.477Z,65.70
2018-11-26T19:17:44.241Z,66.30
2018-11-26T19:20:12.396Z,66.00
2018-11-26T19:22:40.998Z,66.50
2018-11-26T19:25:10.508Z,66.90
2018-11-26T19:27:38.219Z,66.70
2018-11-26T19:30:15.377Z,66.90
2018-11-26T19:32:44.248Z,66.60
2018-11-26T19:35:13.450Z,66.70
2018-11-26T19:37:41.183Z,66.60
2018-11-26T19:40:17.956Z,66.50
2018-11-26T19:42:46.402Z,66.50
2018-11-26T19:45:18.658Z,66.50
2018-11-26T19:47:46.537Z,66.80
2018-11-26T19:50:17.411Z,67.20
2018-11-26T19:52:46.295Z,68.00
2018-11-26T19:55:16.239Z,67.00
2018-11-26T19:57:43.949Z,67.30
2018-11-26T20:00:14.729Z,67.50
2018-11-26T20:02:43.139Z,67.50
2018-11-26T20:05:29.529Z,67.50
2018-11-26T20:08:02.950Z,67.70
2018-11-26T20:10:30.683Z,67.90
2018-11-26T20:12:58.427Z,68.20
2018-11-26T20:15:26.191Z,68.30
2018-11-26T20:17:58.910Z,68.10
2018-11-26T20:20:22.848Z,68.20
2018-11-26T20:22:50.593Z,68.40
2018-11-26T20:25:18.683Z,68.20
2018-11-26T20:27:52.062Z,68.00
2018-11-26T20:30:19.917Z,68.00
2018-11-26T20:32:47.993Z,67.80
2018-11-26T20:35:15.697Z,68.30
2018-11-26T20:37:43.467Z,68.40
2018-11-26T20:40:13.376Z,68.80
2018-11-26T20:42:44.398Z,68.80
2018-11-26T20:45:13.556Z,68.60
2018-11-26T20:47:41.366Z,68.00
2018-11-26T20:50:12.287Z,68.00
2018-11-26T20:52:45.641Z,67.70
2018-11-26T20:55:15.001Z,67.60
2018-11-26T20:57:42.708Z,68.10
2018-11-26T21:00:13.981Z,68.50
2018-11-26T21:02:41.850Z,68.60
2018-11-26T21:05:09.725Z,69.10
2018-11-26T21:07:37.416Z,69.40
2018-11-26T21:10:07.721Z,69.60
2018-11-26T21:12:35.421Z,70.10
2018-11-26T21:15:03.664Z,70.40
2018-11-26T21:17:31.488Z,70.70
2018-11-26T21:20:04.766Z,71.00
2018-11-26T21:22:32.536Z,71.00
2018-11-26T21:25:00.282Z,70.80
2018-11-26T21:27:33.765Z,72.10
2018-11-26T21:30:01.448Z,71.40
2018-11-26T21:32:29.140Z,71.50
2018-11-26T21:34:56.875Z,72.00
2018-11-26T21:37:24.607Z,72.60
2018-11-26T21:39:52.292Z,73.00
2018-11-26T21:42:20.074Z,73.50
2018-11-26T21:44:47.983Z,73.50
2018-11-26T21:47:15.689Z,73.50
2018-11-26T21:49:43.601Z,74.10
2018-11-26T21:52:11.382Z,74.50
2018-11-26T21:54:39.145Z,74.60
2018-11-26T21:57:06.954Z,74.90
2018-11-26T21:59:34.685Z,75.10
2018-11-26T22:02:02.443Z,75.10
2018-11-26T22:04:30.194Z,75.50
2018-11-26T22:06:58.191Z,75.60
2018-11-26T22:09:25.905Z,76.00
2018-11-26T22:11:53.669Z,76.40
2018-11-26T22:14:21.461Z,76.70
2018-11-26T22:16:49.281Z,76.90
2018-11-26T22:19:17.051Z,77.00
2018-11-26T22:21:44.865Z,77.40
2018-11-26T22:24:12.583Z,77.30
2018-11-26T22:26:40.335Z,78.00
2018-11-26T22:29:08.060Z,78.50
2018-11-26T22:31:35.795Z,78.60
2018-11-26T22:34:03.561Z,78.80
2018-11-26T22:36:31.326Z,79.30
2018-11-26T22:38:59.050Z,79.50
2018-11-26T22:41:26.800Z,79.70
2018-11-26T22:43:54.553Z,80.00
2018-11-26T22:46:22.260Z,80.50
2018-11-26T22:48:50.053Z,80.50
2018-11-26T22:51:18.325Z,80.90
2018-11-26T22:53:46.025Z,81.20
2018-11-26T22:56:13.783Z,81.40
2018-11-26T22:58:41.508Z,81.80
2018-11-26T23:01:09.241Z,81.80
2018-11-26T23:03:37.010Z,82.20
2018-11-26T23:06:05.112Z,82.10
2018-11-26T23:08:32.831Z,82.20
2018-11-26T23:11:00.634Z,82.80
2018-11-26T23:13:28.303Z,82.90
2018-11-26T23:15:55.985Z,82.90
2018-11-26T23:18:23.761Z,83.20
2018-11-26T23:20:51.509Z,83.40
2018-11-26T23:23:19.213Z,83.70
2018-11-26T23:25:46.969Z,83.80
2018-11-26T23:28:14.685Z,84.20
2018-11-26T23:30:42.394Z,84.20
2018-11-26T23:33:10.145Z,84.50
2018-11-26T23:35:37.862Z,84.90
2018-11-26T23:38:05.721Z,84.90
2018-11-26T23:40:34.242Z,85.00
2018-11-26T23:43:01.703Z,85.30
2018-11-26T23:45:29.620Z,85.50
2018-11-26T23:47:57.348Z,85.70
2018-11-26T23:50:25.030Z,85.70
2018-11-26T23:52:52.740Z,85.70
2018-11-26T23:55:21.737Z,85.90
2018-11-26T23:57:55.125Z,85.90
